sensor_id;sensor_type;location;lat;lon;timestamp;P1;durP1;ratioP1;P2;durP2;ratioP2
11039;SDS011;5573;49.592;8.662;2022-12-01T00:01:25;184.27;;;173.97;;
11039;SDS011;5573;49.592;8.662;2022-12-01T00:04:13;161.43;;;152.43;;
11039;SDS011;5573;49.592;8.662;2022-12-01T00:07:00;190.53;;;180.20;;
11039;SDS011;5573;49.592;8.662;2022-12-01T00:09:48;188.20;;;177.63;;
11039;SDS011;5573;49.592;8.662;2022-12-01T00:12:56;190.03;;;179.53;;
11039;SDS011;5573;49.592;8.662;2022-12-01T00:15:45;174.47;;;164.73;;
11039;SDS011;5573;49.592;8.662;2022-12-01T00:18:33;184.00;;;173.93;;
11039;SDS011;5573;49.592;8.662;2022-12-01T00:21:21;175.50;;;165.83;;
11039;SDS011;5573;49.592;8.662;2022-12-01T00:24:10;161.90;;;152.77;;
11039;SDS011;5573;49.592;8.662;2022-12-01T00:26:58;181.77;;;171.93;;
11039;SDS011;5573;49.592;8.662;2022-12-01T00:29:48;178.13;;;168.47;;
11039;SDS011;5573;49.592;8.662;2022-12-01T00:32:36;180.20;;;170.30;;
11039;SDS011;5573;49.592;8.662;2022-12-01T00:35:24;186.50;;;176.37;;
11039;SDS011;5573;49.592;8.662;2022-12-01T00:38:12;176.40;;;166.63;;
11039;SDS011;5573;49.592;8.662;2022-12-01T00:41:00;187.27;;;177.07;;
11039;SDS011;5573;49.592;8.662;2022-12-01T00:43:48;179.17;;;169.20;;
11039;SDS011;5573;49.592;8.662;2022-12-01T00:46:38;175.00;;;165.53;;
11039;SDS011;5573;49.592;8.662;2022-12-01T00:49:26;182.53;;;172.63;;
11039;SDS011;5573;49.592;8.662;2022-12-01T00:52:15;177.90;;;168.27;;
11039;SDS011;5573;49.592;8.662;2022-12-01T00:55:03;181.13;;;171.07;;
11039;SDS011;5573;49.592;8.662;2022-12-01T00:57:52;166.70;;;157.77;;
11039;SDS011;5573;49.592;8.662;2022-12-01T01:00:40;175.57;;;166.07;;
11039;SDS011;5573;49.592;8.662;2022-12-01T01:03:38;177.73;;;168.03;;
11039;SDS011;5573;49.592;8.662;2022-12-01T01:06:26;165.67;;;156.60;;
11039;SDS011;5573;49.592;8.662;2022-12-01T01:09:15;167.43;;;157.93;;
11039;SDS011;5573;49.592;8.662;2022-12-01T01:12:03;188.50;;;178.40;;
11039;SDS011;5573;49.592;8.662;2022-12-01T01:14:51;171.33;;;161.83;;
11039;SDS011;5573;49.592;8.662;2022-12-01T01:17:39;164.20;;;155.27;;
11039;SDS011;5573;49.592;8.662;2022-12-01T01:20:28;173.63;;;164.07;;
11039;SDS011;5573;49.592;8.662;2022-12-01T01:23:17;190.60;;;180.07;;
11039;SDS011;5573;49.592;8.662;2022-12-01T01:26:06;179.13;;;169.17;;
11039;SDS011;5573;49.592;8.662;2022-12-01T01:28:55;170.43;;;160.77;;
11039;SDS011;5573;49.592;8.662;2022-12-01T01:31:45;191.27;;;181.00;;
11039;SDS011;5573;49.592;8.662;2022-12-01T01:34:33;169.93;;;160.27;;
11039;SDS011;5573;49.592;8.662;2022-12-01T01:37:22;182.07;;;172.10;;
11039;SDS011;5573;49.592;8.662;2022-12-01T01:40:10;180.07;;;170.03;;
11039;SDS011;5573;49.592;8.662;2022-12-01T01:42:58;177.90;;;167.73;;
11039;SDS011;5573;49.592;8.662;2022-12-01T01:45:46;179.93;;;169.90;;
11039;SDS011;5573;49.592;8.662;2022-12-01T01:48:34;183.40;;;173.27;;
11039;SDS011;5573;49.592;8.662;2022-12-01T01:51:25;167.77;;;158.43;;
11039;SDS011;5573;49.592;8.662;2022-12-01T01:54:19;182.17;;;172.07;;
11039;SDS011;5573;49.592;8.662;2022-12-01T01:57:12;165.83;;;156.67;;
11039;SDS011;5573;49.592;8.662;2022-12-01T02:00:04;175.53;;;165.07;;
11039;SDS011;5573;49.592;8.662;2022-12-01T02:03:01;168.90;;;159.70;;
11039;SDS011;5573;49.592;8.662;2022-12-01T02:05:50;167.17;;;157.93;;
11039;SDS011;5573;49.592;8.662;2022-12-01T02:08:38;186.57;;;176.43;;
11039;SDS011;5573;49.592;8.662;2022-12-01T02:11:39;166.57;;;157.50;;
11039;SDS011;5573;49.592;8.662;2022-12-01T02:14:42;175.00;;;165.37;;
11039;SDS011;5573;49.592;8.662;2022-12-01T02:17:44;170.93;;;161.70;;
11039;SDS011;5573;49.592;8.662;2022-12-01T02:20:54;170.40;;;161.37;;
11039;SDS011;5573;49.592;8.662;2022-12-01T02:24:07;172.20;;;162.73;;
11039;SDS011;5573;49.592;8.662;2022-12-01T02:27:27;160.37;;;151.67;;
11039;SDS011;5573;49.592;8.662;2022-12-01T02:30:32;164.43;;;155.60;;
11039;SDS011;5573;49.592;8.662;2022-12-01T02:33:26;170.13;;;160.20;;
11039;SDS011;5573;49.592;8.662;2022-12-01T02:36:25;175.37;;;165.90;;
11039;SDS011;5573;49.592;8.662;2022-12-01T02:39:20;175.73;;;165.80;;
11039;SDS011;5573;49.592;8.662;2022-12-01T02:42:16;176.63;;;166.83;;
11039;SDS011;5573;49.592;8.662;2022-12-01T02:45:25;159.17;;;150.47;;
11039;SDS011;5573;49.592;8.662;2022-12-01T02:48:20;165.23;;;156.23;;
11039;SDS011;5573;49.592;8.662;2022-12-01T02:51:13;176.23;;;166.50;;
11039;SDS011;5573;49.592;8.662;2022-12-01T02:54:04;172.67;;;162.97;;
11039;SDS011;5573;49.592;8.662;2022-12-01T02:56:53;170.43;;;161.00;;
11039;SDS011;5573;49.592;8.662;2022-12-01T02:59:41;169.80;;;160.47;;
11039;SDS011;5573;49.592;8.662;2022-12-01T03:02:34;175.33;;;165.73;;
11039;SDS011;5573;49.592;8.662;2022-12-01T03:05:37;177.77;;;168.20;;
11039;SDS011;5573;49.592;8.662;2022-12-01T03:08:33;174.07;;;164.70;;
11039;SDS011;5573;49.592;8.662;2022-12-01T03:11:33;151.80;;;143.30;;
11039;SDS011;5573;49.592;8.662;2022-12-01T03:14:30;163.00;;;154.10;;
11039;SDS011;5573;49.592;8.662;2022-12-01T03:17:23;151.17;;;142.97;;
11039;SDS011;5573;49.592;8.662;2022-12-01T03:20:15;150.47;;;142.37;;
11039;SDS011;5573;49.592;8.662;2022-12-01T03:23:11;167.23;;;158.17;;
11039;SDS011;5573;49.592;8.662;2022-12-01T03:26:02;155.50;;;146.83;;
11039;SDS011;5573;49.592;8.662;2022-12-01T03:28:53;158.00;;;149.30;;
11039;SDS011;5573;49.592;8.662;2022-12-01T03:31:47;147.33;;;139.57;;
11039;SDS011;5573;49.592;8.662;2022-12-01T03:34:40;172.93;;;163.00;;
11039;SDS011;5573;49.592;8.662;2022-12-01T03:37:32;158.80;;;150.23;;
11039;SDS011;5573;49.592;8.662;2022-12-01T03:40:24;148.33;;;140.27;;
11039;SDS011;5573;49.592;8.662;2022-12-01T03:43:15;164.07;;;155.03;;
11039;SDS011;5573;49.592;8.662;2022-12-01T03:46:08;152.77;;;144.30;;
11039;SDS011;5573;49.592;8.662;2022-12-01T03:48:59;164.77;;;155.57;;
11039;SDS011;5573;49.592;8.662;2022-12-01T03:51:49;163.23;;;154.37;;
11039;SDS011;5573;49.592;8.662;2022-12-01T03:54:47;158.83;;;150.03;;
11039;SDS011;5573;49.592;8.662;2022-12-01T03:57:43;167.93;;;158.73;;
11039;SDS011;5573;49.592;8.662;2022-12-01T04:00:33;155.50;;;147.03;;
11039;SDS011;5573;49.592;8.662;2022-12-01T04:03:23;157.80;;;148.83;;
11039;SDS011;5573;49.592;8.662;2022-12-01T04:06:12;165.20;;;156.03;;
11039;SDS011;5573;49.592;8.662;2022-12-01T04:09:00;153.43;;;145.03;;
11039;SDS011;5573;49.592;8.662;2022-12-01T04:11:48;156.20;;;147.60;;
11039;SDS011;5573;49.592;8.662;2022-12-01T04:14:56;158.50;;;149.57;;
11039;SDS011;5573;49.592;8.662;2022-12-01T04:17:44;146.40;;;138.50;;
11039;SDS011;5573;49.592;8.662;2022-12-01T04:20:32;146.13;;;138.10;;
11039;SDS011;5573;49.592;8.662;2022-12-01T04:23:20;164.77;;;155.40;;
11039;SDS011;5573;49.592;8.662;2022-12-01T04:26:22;151.33;;;143.07;;
11039;SDS011;5573;49.592;8.662;2022-12-01T04:29:11;148.97;;;140.97;;
11039;SDS011;5573;49.592;8.662;2022-12-01T04:32:00;164.70;;;155.63;;
11039;SDS011;5573;49.592;8.662;2022-12-01T04:34:48;174.07;;;164.73;;
11039;SDS011;5573;49.592;8.662;2022-12-01T04:37:36;160.33;;;151.70;;
11039;SDS011;5573;49.592;8.662;2022-12-01T04:40:24;147.60;;;139.63;;
11039;SDS011;5573;49.592;8.662;2022-12-01T04:43:12;146.20;;;138.10;;
11039;SDS011;5573;49.592;8.662;2022-12-01T04:46:01;150.57;;;142.27;;
11039;SDS011;5573;49.592;8.662;2022-12-01T04:48:50;162.70;;;153.83;;
11039;SDS011;5573;49.592;8.662;2022-12-01T04:51:38;156.27;;;147.90;;
11039;SDS011;5573;49.592;8.662;2022-12-01T04:54:26;162.83;;;153.73;;
11039;SDS011;5573;49.592;8.662;2022-12-01T04:57:14;166.37;;;157.43;;
11039;SDS011;5573;49.592;8.662;2022-12-01T05:00:03;143.67;;;135.87;;
11039;SDS011;5573;49.592;8.662;2022-12-01T05:02:58;154.13;;;145.57;;
11039;SDS011;5573;49.592;8.662;2022-12-01T05:05:48;163.17;;;154.20;;
11039;SDS011;5573;49.592;8.662;2022-12-01T05:08:36;155.10;;;146.63;;
11039;SDS011;5573;49.592;8.662;2022-12-01T05:11:26;154.93;;;146.33;;
11039;SDS011;5573;49.592;8.662;2022-12-01T05:14:15;151.57;;;143.30;;
11039;SDS011;5573;49.592;8.662;2022-12-01T05:17:03;147.57;;;139.57;;
11039;SDS011;5573;49.592;8.662;2022-12-01T05:19:51;145.70;;;137.60;;
11039;SDS011;5573;49.592;8.662;2022-12-01T05:22:58;154.43;;;146.00;;
11039;SDS011;5573;49.592;8.662;2022-12-01T05:25:52;154.13;;;145.77;;
11039;SDS011;5573;49.592;8.662;2022-12-01T05:28:40;149.03;;;140.90;;
11039;SDS011;5573;49.592;8.662;2022-12-01T05:31:28;143.23;;;135.40;;
11039;SDS011;5573;49.592;8.662;2022-12-01T05:34:17;151.87;;;143.40;;
11039;SDS011;5573;49.592;8.662;2022-12-01T05:37:05;150.03;;;141.80;;
11039;SDS011;5573;49.592;8.662;2022-12-01T05:39:54;145.17;;;137.27;;
11039;SDS011;5573;49.592;8.662;2022-12-01T05:42:42;141.50;;;133.70;;
11039;SDS011;5573;49.592;8.662;2022-12-01T05:45:30;145.07;;;137.00;;
11039;SDS011;5573;49.592;8.662;2022-12-01T05:48:18;133.47;;;126.17;;
11039;SDS011;5573;49.592;8.662;2022-12-01T05:51:06;128.70;;;121.70;;
11039;SDS011;5573;49.592;8.662;2022-12-01T05:53:57;132.30;;;125.13;;
11039;SDS011;5573;49.592;8.662;2022-12-01T05:56:46;130.83;;;123.77;;
11039;SDS011;5573;49.592;8.662;2022-12-01T05:59:34;139.83;;;132.17;;
11039;SDS011;5573;49.592;8.662;2022-12-01T06:02:22;127.27;;;120.43;;
11039;SDS011;5573;49.592;8.662;2022-12-01T06:05:12;131.50;;;123.90;;
11039;SDS011;5573;49.592;8.662;2022-12-01T06:08:00;125.00;;;118.23;;
11039;SDS011;5573;49.592;8.662;2022-12-01T06:10:48;135.67;;;128.17;;
11039;SDS011;5573;49.592;8.662;2022-12-01T06:13:37;131.80;;;124.73;;
11039;SDS011;5573;49.592;8.662;2022-12-01T06:16:25;132.53;;;125.37;;
11039;SDS011;5573;49.592;8.662;2022-12-01T06:19:13;136.20;;;128.80;;
11039;SDS011;5573;49.592;8.662;2022-12-01T06:22:01;138.13;;;130.57;;
11039;SDS011;5573;49.592;8.662;2022-12-01T06:24:49;130.53;;;123.53;;
11039;SDS011;5573;49.592;8.662;2022-12-01T06:27:37;142.37;;;134.67;;
11039;SDS011;5573;49.592;8.662;2022-12-01T06:30:27;132.83;;;125.53;;
11039;SDS011;5573;49.592;8.662;2022-12-01T06:33:15;128.47;;;121.60;;
11039;SDS011;5573;49.592;8.662;2022-12-01T06:36:04;143.23;;;135.33;;
11039;SDS011;5573;49.592;8.662;2022-12-01T06:38:53;121.87;;;115.20;;
11039;SDS011;5573;49.592;8.662;2022-12-01T06:41:41;144.00;;;136.17;;
11039;SDS011;5573;49.592;8.662;2022-12-01T06:44:29;136.47;;;128.67;;
11039;SDS011;5573;49.592;8.662;2022-12-01T06:47:18;127.70;;;120.73;;
11039;SDS011;5573;49.592;8.662;2022-12-01T06:50:06;149.20;;;141.10;;
11039;SDS011;5573;49.592;8.662;2022-12-01T06:52:55;134.63;;;127.20;;
11039;SDS011;5573;49.592;8.662;2022-12-01T06:55:45;138.83;;;131.37;;
11039;SDS011;5573;49.592;8.662;2022-12-01T06:58:33;136.33;;;128.67;;
11039;SDS011;5573;49.592;8.662;2022-12-01T07:01:21;126.77;;;119.83;;
11039;SDS011;5573;49.592;8.662;2022-12-01T07:04:10;118.90;;;112.57;;
11039;SDS011;5573;49.592;8.662;2022-12-01T07:06:58;138.57;;;131.07;;
11039;SDS011;5573;49.592;8.662;2022-12-01T07:09:46;134.10;;;126.73;;
11039;SDS011;5573;49.592;8.662;2022-12-01T07:12:35;123.73;;;116.83;;
11039;SDS011;5573;49.592;8.662;2022-12-01T07:15:23;129.27;;;122.30;;
11039;SDS011;5573;49.592;8.662;2022-12-01T07:18:11;121.90;;;115.17;;
11039;SDS011;5573;49.592;8.662;2022-12-01T07:21:01;145.23;;;136.87;;
11039;SDS011;5573;49.592;8.662;2022-12-01T07:23:51;139.03;;;131.50;;
11039;SDS011;5573;49.592;8.662;2022-12-01T07:26:39;134.77;;;127.23;;
11039;SDS011;5573;49.592;8.662;2022-12-01T07:29:27;147.30;;;139.20;;
11039;SDS011;5573;49.592;8.662;2022-12-01T07:32:15;131.30;;;123.93;;
11039;SDS011;5573;49.592;8.662;2022-12-01T07:35:03;124.40;;;117.43;;
11039;SDS011;5573;49.592;8.662;2022-12-01T07:37:54;137.37;;;129.83;;
11039;SDS011;5573;49.592;8.662;2022-12-01T07:40:42;135.77;;;128.23;;
11039;SDS011;5573;49.592;8.662;2022-12-01T07:43:30;135.67;;;128.07;;
11039;SDS011;5573;49.592;8.662;2022-12-01T07:46:20;136.93;;;128.90;;
11039;SDS011;5573;49.592;8.662;2022-12-01T07:49:10;136.80;;;129.17;;
11039;SDS011;5573;49.592;8.662;2022-12-01T07:52:00;140.77;;;133.17;;
11039;SDS011;5573;49.592;8.662;2022-12-01T07:54:49;152.00;;;143.73;;
11039;SDS011;5573;49.592;8.662;2022-12-01T07:57:38;147.47;;;139.17;;
11039;SDS011;5573;49.592;8.662;2022-12-01T08:00:26;154.33;;;145.77;;
11039;SDS011;5573;49.592;8.662;2022-12-01T08:03:14;144.20;;;136.10;;
11039;SDS011;5573;49.592;8.662;2022-12-01T08:06:02;142.03;;;133.60;;
11039;SDS011;5573;49.592;8.662;2022-12-01T08:08:51;147.50;;;139.23;;
11039;SDS011;5573;49.592;8.662;2022-12-01T08:11:41;152.43;;;143.90;;
11039;SDS011;5573;49.592;8.662;2022-12-01T08:14:29;153.93;;;145.10;;
11039;SDS011;5573;49.592;8.662;2022-12-01T08:17:16;149.53;;;141.20;;
11039;SDS011;5573;49.592;8.662;2022-12-01T08:20:05;142.03;;;133.97;;
11039;SDS011;5573;49.592;8.662;2022-12-01T08:22:54;156.27;;;147.37;;
11039;SDS011;5573;49.592;8.662;2022-12-01T08:25:42;147.00;;;138.90;;
11039;SDS011;5573;49.592;8.662;2022-12-01T08:28:33;156.27;;;147.53;;
11039;SDS011;5573;49.592;8.662;2022-12-01T08:31:22;156.30;;;147.67;;
11039;SDS011;5573;49.592;8.662;2022-12-01T08:34:12;172.13;;;162.60;;
11039;SDS011;5573;49.592;8.662;2022-12-01T08:36:59;165.87;;;156.77;;
11039;SDS011;5573;49.592;8.662;2022-12-01T08:39:47;172.30;;;162.93;;
11039;SDS011;5573;49.592;8.662;2022-12-01T08:42:36;170.63;;;161.23;;
11039;SDS011;5573;49.592;8.662;2022-12-01T08:45:26;183.40;;;173.33;;
11039;SDS011;5573;49.592;8.662;2022-12-01T08:48:14;163.33;;;154.27;;
11039;SDS011;5573;49.592;8.662;2022-12-01T08:51:02;171.40;;;161.80;;
11039;SDS011;5573;49.592;8.662;2022-12-01T08:53:53;164.13;;;154.80;;
11039;SDS011;5573;49.592;8.662;2022-12-01T08:56:43;178.70;;;168.57;;
11039;SDS011;5573;49.592;8.662;2022-12-01T08:59:32;170.37;;;160.80;;
11039;SDS011;5573;49.592;8.662;2022-12-01T09:02:21;172.87;;;163.33;;
11039;SDS011;5573;49.592;8.662;2022-12-01T09:05:09;174.47;;;164.87;;
11039;SDS011;5573;49.592;8.662;2022-12-01T09:07:57;186.97;;;176.73;;
11039;SDS011;5573;49.592;8.662;2022-12-01T09:11:05;162.33;;;153.37;;
11039;SDS011;5573;49.592;8.662;2022-12-01T09:13:54;163.20;;;154.10;;
11039;SDS011;5573;49.592;8.662;2022-12-01T09:16:42;175.93;;;166.13;;
11039;SDS011;5573;49.592;8.662;2022-12-01T09:19:33;170.47;;;160.90;;
11039;SDS011;5573;49.592;8.662;2022-12-01T09:22:21;185.37;;;174.57;;
11039;SDS011;5573;49.592;8.662;2022-12-01T09:25:09;170.07;;;160.63;;
11039;SDS011;5573;49.592;8.662;2022-12-01T09:28:00;172.53;;;162.80;;
11039;SDS011;5573;49.592;8.662;2022-12-01T09:30:48;200.03;;;188.23;;
11039;SDS011;5573;49.592;8.662;2022-12-01T09:33:36;189.23;;;178.33;;
11039;SDS011;5573;49.592;8.662;2022-12-01T09:36:26;196.30;;;185.33;;
11039;SDS011;5573;49.592;8.662;2022-12-01T09:39:16;194.10;;;183.03;;
11039;SDS011;5573;49.592;8.662;2022-12-01T09:42:06;204.73;;;193.27;;
11039;SDS011;5573;49.592;8.662;2022-12-01T09:44:59;181.23;;;171.17;;
11039;SDS011;5573;49.592;8.662;2022-12-01T09:47:49;198.80;;;187.50;;
11039;SDS011;5573;49.592;8.662;2022-12-01T09:50:41;195.13;;;184.20;;
11039;SDS011;5573;49.592;8.662;2022-12-01T09:53:31;198.97;;;187.83;;
11039;SDS011;5573;49.592;8.662;2022-12-01T09:56:20;200.63;;;189.63;;
11039;SDS011;5573;49.592;8.662;2022-12-01T09:59:13;185.87;;;175.50;;
11039;SDS011;5573;49.592;8.662;2022-12-01T10:02:20;189.37;;;178.83;;
11039;SDS011;5573;49.592;8.662;2022-12-01T10:05:14;180.00;;;169.80;;
11039;SDS011;5573;49.592;8.662;2022-12-01T10:08:06;201.97;;;190.97;;
11039;SDS011;5573;49.592;8.662;2022-12-01T10:11:03;196.63;;;185.27;;
11039;SDS011;5573;49.592;8.662;2022-12-01T10:13:55;183.13;;;172.87;;
11039;SDS011;5573;49.592;8.662;2022-12-01T10:16:45;189.77;;;179.00;;
11039;SDS011;5573;49.592;8.662;2022-12-01T10:19:41;208.37;;;196.73;;
11039;SDS011;5573;49.592;8.662;2022-12-01T10:22:46;214.33;;;202.50;;
11039;SDS011;5573;49.592;8.662;2022-12-01T10:25:43;196.43;;;185.63;;
11039;SDS011;5573;49.592;8.662;2022-12-01T10:28:51;198.30;;;187.27;;
11039;SDS011;5573;49.592;8.662;2022-12-01T10:31:50;196.23;;;185.23;;
11039;SDS011;5573;49.592;8.662;2022-12-01T10:34:40;203.40;;;191.60;;
11039;SDS011;5573;49.592;8.662;2022-12-01T10:37:32;198.93;;;187.57;;
11039;SDS011;5573;49.592;8.662;2022-12-01T10:40:20;218.97;;;207.00;;
11039;SDS011;5573;49.592;8.662;2022-12-01T10:43:08;205.17;;;193.70;;
11039;SDS011;5573;49.592;8.662;2022-12-01T10:45:58;211.23;;;199.53;;
11039;SDS011;5573;49.592;8.662;2022-12-01T10:48:51;219.57;;;207.57;;
11039;SDS011;5573;49.592;8.662;2022-12-01T10:51:51;217.33;;;205.33;;
11039;SDS011;5573;49.592;8.662;2022-12-01T10:54:40;202.23;;;190.83;;
11039;SDS011;5573;49.592;8.662;2022-12-01T10:57:29;216.13;;;203.73;;
11039;SDS011;5573;49.592;8.662;2022-12-01T11:00:19;206.87;;;195.30;;
11039;SDS011;5573;49.592;8.662;2022-12-01T11:03:30;203.20;;;191.67;;
11039;SDS011;5573;49.592;8.662;2022-12-01T11:06:21;210.77;;;199.13;;
11039;SDS011;5573;49.592;8.662;2022-12-01T11:09:15;229.67;;;216.90;;
11039;SDS011;5573;49.592;8.662;2022-12-01T11:12:12;197.17;;;186.13;;
11039;SDS011;5573;49.592;8.662;2022-12-01T11:15:03;199.90;;;188.93;;
11039;SDS011;5573;49.592;8.662;2022-12-01T11:17:56;225.70;;;213.30;;
11039;SDS011;5573;49.592;8.662;2022-12-01T11:20:47;205.30;;;193.43;;
11039;SDS011;5573;49.592;8.662;2022-12-01T11:23:51;222.97;;;210.50;;
11039;SDS011;5573;49.592;8.662;2022-12-01T11:26:40;215.33;;;203.43;;
11039;SDS011;5573;49.592;8.662;2022-12-01T11:29:29;203.47;;;192.13;;
11039;SDS011;5573;49.592;8.662;2022-12-01T11:32:22;214.10;;;201.97;;
11039;SDS011;5573;49.592;8.662;2022-12-01T11:35:14;219.47;;;207.37;;
11039;SDS011;5573;49.592;8.662;2022-12-01T11:38:06;223.23;;;210.63;;
11039;SDS011;5573;49.592;8.662;2022-12-01T11:41:22;216.47;;;204.43;;
11039;SDS011;5573;49.592;8.662;2022-12-01T11:44:14;203.43;;;191.97;;
11039;SDS011;5573;49.592;8.662;2022-12-01T11:47:25;205.37;;;193.93;;
11039;SDS011;5573;49.592;8.662;2022-12-01T11:50:22;229.83;;;217.03;;
11039;SDS011;5573;49.592;8.662;2022-12-01T11:53:24;210.50;;;198.67;;
11039;SDS011;5573;49.592;8.662;2022-12-01T11:56:18;215.43;;;203.27;;
11039;SDS011;5573;49.592;8.662;2022-12-01T11:59:11;229.83;;;216.90;;
11039;SDS011;5573;49.592;8.662;2022-12-01T12:02:05;235.93;;;222.93;;
11039;SDS011;5573;49.592;8.662;2022-12-01T12:05:14;220.33;;;208.07;;
11039;SDS011;5573;49.592;8.662;2022-12-01T12:08:21;239.97;;;226.77;;
11039;SDS011;5573;49.592;8.662;2022-12-01T12:11:21;214.33;;;202.70;;
11039;SDS011;5573;49.592;8.662;2022-12-01T12:14:24;222.33;;;210.13;;
11039;SDS011;5573;49.592;8.662;2022-12-01T12:17:25;219.83;;;207.60;;
11039;SDS011;5573;49.592;8.662;2022-12-01T12:20:26;231.10;;;218.27;;
11039;SDS011;5573;49.592;8.662;2022-12-01T12:23:29;225.23;;;212.77;;
11039;SDS011;5573;49.592;8.662;2022-12-01T12:26:27;217.53;;;205.30;;
11039;SDS011;5573;49.592;8.662;2022-12-01T12:29:20;215.53;;;203.77;;
11039;SDS011;5573;49.592;8.662;2022-12-01T12:32:27;212.27;;;200.50;;
11039;SDS011;5573;49.592;8.662;2022-12-01T12:35:28;216.47;;;204.67;;
11039;SDS011;5573;49.592;8.662;2022-12-01T12:38:30;222.47;;;209.67;;
11039;SDS011;5573;49.592;8.662;2022-12-01T12:41:33;234.93;;;221.67;;
11039;SDS011;5573;49.592;8.662;2022-12-01T12:44:29;245.33;;;231.70;;
11039;SDS011;5573;49.592;8.662;2022-12-01T12:50:42;243.07;;;229.70;;
11039;SDS011;5573;49.592;8.662;2022-12-01T12:53:40;241.30;;;228.20;;
11039;SDS011;5573;49.592;8.662;2022-12-01T12:56:32;238.20;;;225.13;;
11039;SDS011;5573;49.592;8.662;2022-12-01T12:59:23;245.03;;;231.73;;
11039;SDS011;5573;49.592;8.662;2022-12-01T13:02:17;253.50;;;239.43;;
11039;SDS011;5573;49.592;8.662;2022-12-01T13:05:11;258.47;;;243.50;;
11039;SDS011;5573;49.592;8.662;2022-12-01T13:08:05;246.47;;;232.80;;
11039;SDS011;5573;49.592;8.662;2022-12-01T13:10:59;257.50;;;243.07;;
11039;SDS011;5573;49.592;8.662;2022-12-01T13:13:53;255.87;;;241.87;;
11039;SDS011;5573;49.592;8.662;2022-12-01T13:16:46;246.27;;;232.90;;
11039;SDS011;5573;49.592;8.662;2022-12-01T13:19:36;233.27;;;220.13;;
11039;SDS011;5573;49.592;8.662;2022-12-01T13:22:28;237.57;;;224.17;;
11039;SDS011;5573;49.592;8.662;2022-12-01T13:25:22;229.43;;;216.43;;
11039;SDS011;5573;49.592;8.662;2022-12-01T13:28:16;235.27;;;222.60;;
11039;SDS011;5573;49.592;8.662;2022-12-01T13:31:08;236.90;;;223.73;;
11039;SDS011;5573;49.592;8.662;2022-12-01T13:33:58;224.50;;;211.87;;
11039;SDS011;5573;49.592;8.662;2022-12-01T13:36:48;225.53;;;212.67;;
11039;SDS011;5573;49.592;8.662;2022-12-01T13:39:38;233.50;;;220.63;;
11039;SDS011;5573;49.592;8.662;2022-12-01T13:42:28;241.97;;;228.30;;
11039;SDS011;5573;49.592;8.662;2022-12-01T13:45:21;232.37;;;219.40;;
11039;SDS011;5573;49.592;8.662;2022-12-01T13:48:24;254.47;;;240.20;;
11039;SDS011;5573;49.592;8.662;2022-12-01T13:51:14;235.03;;;221.90;;
11039;SDS011;5573;49.592;8.662;2022-12-01T13:54:03;245.37;;;231.83;;
11039;SDS011;5573;49.592;8.662;2022-12-01T13:56:58;240.37;;;226.93;;
11039;SDS011;5573;49.592;8.662;2022-12-01T14:00:03;230.47;;;217.97;;
11039;SDS011;5573;49.592;8.662;2022-12-01T14:06:27;235.03;;;221.83;;
11039;SDS011;5573;49.592;8.662;2022-12-01T14:09:25;225.67;;;213.23;;
11039;SDS011;5573;49.592;8.662;2022-12-01T14:12:18;205.90;;;194.47;;
11039;SDS011;5573;49.592;8.662;2022-12-01T14:15:28;213.37;;;201.73;;
11039;SDS011;5573;49.592;8.662;2022-12-01T14:18:26;208.53;;;196.80;;
11039;SDS011;5573;49.592;8.662;2022-12-01T14:24:33;217.20;;;204.93;;
11039;SDS011;5573;49.592;8.662;2022-12-01T14:27:31;205.40;;;193.43;;
11039;SDS011;5573;49.592;8.662;2022-12-01T14:33:50;186.53;;;176.23;;
11039;SDS011;5573;49.592;8.662;2022-12-01T14:36:42;224.77;;;212.30;;
11039;SDS011;5573;49.592;8.662;2022-12-01T14:39:34;209.83;;;198.17;;
11039;SDS011;5573;49.592;8.662;2022-12-01T14:42:27;212.33;;;200.70;;
11039;SDS011;5573;49.592;8.662;2022-12-01T14:45:38;206.67;;;195.20;;
11039;SDS011;5573;49.592;8.662;2022-12-01T14:48:35;219.93;;;207.73;;
11039;SDS011;5573;49.592;8.662;2022-12-01T14:51:29;227.03;;;214.67;;
11039;SDS011;5573;49.592;8.662;2022-12-01T14:54:22;220.97;;;208.77;;
11039;SDS011;5573;49.592;8.662;2022-12-01T14:57:15;214.13;;;202.03;;
11039;SDS011;5573;49.592;8.662;2022-12-01T15:00:11;208.63;;;196.87;;
11039;SDS011;5573;49.592;8.662;2022-12-01T15:03:01;223.47;;;210.80;;
11039;SDS011;5573;49.592;8.662;2022-12-01T15:05:53;210.97;;;199.37;;
11039;SDS011;5573;49.592;8.662;2022-12-01T15:08:41;202.43;;;191.07;;
11039;SDS011;5573;49.592;8.662;2022-12-01T15:11:52;198.07;;;187.03;;
11039;SDS011;5573;49.592;8.662;2022-12-01T15:14:45;206.80;;;195.37;;
11039;SDS011;5573;49.592;8.662;2022-12-01T15:17:35;206.77;;;195.30;;
11039;SDS011;5573;49.592;8.662;2022-12-01T15:20:27;206.87;;;195.23;;
11039;SDS011;5573;49.592;8.662;2022-12-01T15:23:20;207.70;;;195.83;;
11039;SDS011;5573;49.592;8.662;2022-12-01T15:26:14;216.13;;;204.07;;
11039;SDS011;5573;49.592;8.662;2022-12-01T15:29:13;195.57;;;184.63;;
11039;SDS011;5573;49.592;8.662;2022-12-01T15:32:03;207.77;;;195.87;;
11039;SDS011;5573;49.592;8.662;2022-12-01T15:34:54;195.37;;;184.40;;
11039;SDS011;5573;49.592;8.662;2022-12-01T15:37:43;179.33;;;169.27;;
11039;SDS011;5573;49.592;8.662;2022-12-01T15:40:32;180.67;;;170.20;;
11039;SDS011;5573;49.592;8.662;2022-12-01T15:43:40;177.77;;;167.90;;
11039;SDS011;5573;49.592;8.662;2022-12-01T15:46:30;170.93;;;161.57;;
11039;SDS011;5573;49.592;8.662;2022-12-01T15:49:23;170.53;;;161.13;;
11039;SDS011;5573;49.592;8.662;2022-12-01T15:52:14;175.57;;;165.70;;
11039;SDS011;5573;49.592;8.662;2022-12-01T15:55:03;170.20;;;160.80;;
11039;SDS011;5573;49.592;8.662;2022-12-01T15:57:52;159.83;;;151.13;;
11039;SDS011;5573;49.592;8.662;2022-12-01T16:00:40;169.17;;;159.83;;
11039;SDS011;5573;49.592;8.662;2022-12-01T16:03:48;138.50;;;130.93;;
11039;SDS011;5573;49.592;8.662;2022-12-01T16:06:39;144.83;;;136.63;;
11039;SDS011;5573;49.592;8.662;2022-12-01T16:09:28;142.27;;;134.60;;
11039;SDS011;5573;49.592;8.662;2022-12-01T16:12:21;145.70;;;137.50;;
11039;SDS011;5573;49.592;8.662;2022-12-01T16:15:12;128.30;;;121.30;;
11039;SDS011;5573;49.592;8.662;2022-12-01T16:18:15;146.77;;;138.53;;
11039;SDS011;5573;49.592;8.662;2022-12-01T16:21:14;145.53;;;137.47;;
11039;SDS011;5573;49.592;8.662;2022-12-01T16:24:03;136.97;;;129.30;;
11039;SDS011;5573;49.592;8.662;2022-12-01T16:26:53;135.97;;;128.60;;
11039;SDS011;5573;49.592;8.662;2022-12-01T16:29:47;147.17;;;139.00;;
11039;SDS011;5573;49.592;8.662;2022-12-01T16:32:37;148.87;;;140.50;;
11039;SDS011;5573;49.592;8.662;2022-12-01T16:35:27;134.73;;;127.33;;
11039;SDS011;5573;49.592;8.662;2022-12-01T16:38:19;125.83;;;118.83;;
11039;SDS011;5573;49.592;8.662;2022-12-01T16:41:16;128.27;;;121.33;;
11039;SDS011;5573;49.592;8.662;2022-12-01T16:44:13;128.33;;;121.47;;
11039;SDS011;5573;49.592;8.662;2022-12-01T16:47:18;130.90;;;123.90;;